Time;durP1;ratioP1;P1;durP2;ratioP2;P2;SDS_P1;SDS_P2;PMS_P1;PMS_P2;Temp;Humidity;BMP_temperature;BMP_pressure;BME280_temperature;BME280_humidity;BME280_pressure;Samples;Min_cycle;Max_cycle;Signal;HPM_P1;HPM_P2
2021/08/22 00:00:56;;;;;;;;;;;24.60;51.60;;;;;;491609;240;1192;-72
2021/08/22 00:02:57;;;;;;;;;;;24.80;51.20;;;;;;491612;240;1074;-72
2021/08/22 00:04:58;;;;;;;;;;;24.90;51.10;;;;;;491655;240;1080;-72
2021/08/22 00:07:00;;;;;;;;;;;24.90;51.10;;;;;;491618;240;1053;-72
2021/08/22 00:09:01;;;;;;;;;;;24.90;51.20;;;;;;491630;240;1013;-72
2021/08/22 00:11:02;;;;;;;;;;;24.70;51.60;;;;;;491661;240;1137;-73
2021/08/22 00:13:04;;;;;;;;;;;24.70;51.60;;;;;;491687;240;1054;-72
2021/08/22 00:15:05;;;;;;;;;;;24.80;51.10;;;;;;491675;240;1180;-72
2021/08/22 00:17:06;;;;;;;;;;;24.80;51.30;;;;;;491560;240;2188;-72
2021/08/22 00:19:08;;;;;;;;;;;24.90;51.20;;;;;;491713;240;1048;-72
2021/08/22 00:21:09;;;;;;;;;;;24.90;51.10;;;;;;491674;240;1189;-72
2021/08/22 00:23:10;;;;;;;;;;;24.80;51.20;;;;;;491649;240;1074;-72
2021/08/22 00:25:12;;;;;;;;;;;24.90;51.10;;;;;;491762;240;943;-72
2021/08/22 00:27:13;;;;;;;;;;;23.90;52.80;;;;;;491601;240;1637;-72
2021/08/22 00:29:14;;;;;;;;;;;24.10;52.80;;;;;;491711;240;1170;-72
2021/08/22 00:31:16;;;;;;;;;;;24.20;52.80;;;;;;491664;240;1617;-72
2021/08/22 00:33:17;;;;;;;;;;;24.10;52.80;;;;;;491675;240;1103;-72
2021/08/22 00:35:18;;;;;;;;;;;24.10;52.80;;;;;;491697;240;1002;-72
2021/08/22 00:37:20;;;;;;;;;;;23.90;53.00;;;;;;491615;240;2137;-72
2021/08/22 00:39:21;;;;;;;;;;;24.30;52.60;;;;;;491677;240;1575;-72
2021/08/22 00:41:22;;;;;;;;;;;24.30;52.60;;;;;;491611;240;1225;-72
2021/08/22 00:43:24;;;;;;;;;;;24.30;52.40;;;;;;491670;240;1079;-72
2021/08/22 00:45:25;;;;;;;;;;;24.30;52.70;;;;;;491644;240;1200;-72
2021/08/22 00:47:26;;;;;;;;;;;24.10;52.50;;;;;;491550;240;1110;-72
2021/08/22 00:49:28;;;;;;;;;;;24.20;52.50;;;;;;491684;240;1042;-72
2021/08/22 00:51:29;;;;;;;;;;;24.30;52.50;;;;;;491524;240;1226;-72
2021/08/22 00:53:30;;;;;;;;;;;24.30;52.40;;;;;;491678;240;1190;-72
2021/08/22 00:55:32;;;;;;;;;;;24.40;52.50;;;;;;491669;240;987;-72
2021/08/22 00:57:33;;;;;;;;;;;24.40;52.40;;;;;;491592;240;2168;-72
2021/08/22 00:59:34;;;;;;;;;;;24.40;52.30;;;;;;491650;240;1177;-73
2021/08/22 01:01:36;;;;;;;;;;;24.30;52.50;;;;;;491619;240;1344;-72
2021/08/22 01:03:37;;;;;;;;;;;24.10;52.80;;;;;;491648;240;1051;-72
2021/08/22 01:05:38;;;;;;;;;;;24.20;52.60;;;;;;491623;240;1006;-72
2021/08/22 01:07:40;;;;;;;;;;;24.00;52.70;;;;;;491559;240;1062;-72
2021/08/22 01:09:41;;;;;;;;;;;24.20;52.80;;;;;;491628;240;1007;-72
2021/08/22 01:11:42;;;;;;;;;;;24.20;52.40;;;;;;491546;240;1289;-72
2021/08/22 01:13:44;;;;;;;;;;;24.30;52.70;;;;;;491612;240;1103;-72
2021/08/22 01:15:45;;;;;;;;;;;24.20;52.40;;;;;;491624;240;1175;-72
2021/08/22 01:17:46;;;;;;;;;;;24.40;52.10;;;;;;491538;240;2132;-72
2021/08/22 01:19:48;;;;;;;;;;;24.40;52.00;;;;;;491664;240;1097;-72
2021/08/22 01:21:49;;;;;;;;;;;24.30;52.10;;;;;;491584;240;994;-72
2021/08/22 01:23:53;;;;;;;;;;;24.30;52.20;;;;;;491610;240;1063;-72
2021/08/22 01:25:53;;;;;;;;;;;24.30;52.20;;;;;;491593;240;1468;-72
2021/08/22 01:27:55;;;;;;;;;;;24.50;51.80;;;;;;491621;240;1048;-72
2021/08/22 01:29:56;;;;;;;;;;;24.10;52.80;;;;;;491660;240;1338;-72
2021/08/22 01:32:01;;;;;;;;;;;24.40;52.30;;;;;;491679;240;1016;-72
2021/08/22 01:33:59;;;;;;;;;;;24.30;52.50;;;;;;491650;240;1331;-72
2021/08/22 01:36:01;;;;;;;;;;;24.10;52.40;;;;;;491659;240;949;-72
2021/08/22 01:38:02;;;;;;;;;;;24.40;52.30;;;;;;491635;240;2188;-72
2021/08/22 01:40:03;;;;;;;;;;;24.10;52.80;;;;;;491656;240;1061;-72
2021/08/22 01:42:04;;;;;;;;;;;24.30;52.30;;;;;;491696;240;1147;-72
2021/08/22 01:44:06;;;;;;;;;;;24.30;52.20;;;;;;491641;240;1194;-72
2021/08/22 01:46:07;;;;;;;;;;;24.30;52.40;;;;;;491660;240;1220;-72
2021/08/22 01:48:08;;;;;;;;;;;24.30;52.00;;;;;;491609;240;1033;-72
2021/08/22 01:50:10;;;;;;;;;;;24.30;52.30;;;;;;491686;240;1075;-72
2021/08/22 01:52:11;;;;;;;;;;;24.50;52.10;;;;;;491640;240;1265;-72
2021/08/22 01:54:13;;;;;;;;;;;24.40;52.30;;;;;;491721;240;1077;-72
2021/08/22 01:56:14;;;;;;;;;;;24.40;52.10;;;;;;491564;240;1175;-72
2021/08/22 01:58:15;;;;;;;;;;;24.30;52.30;;;;;;491648;240;2171;-72
2021/08/22 02:00:17;;;;;;;;;;;24.20;52.50;;;;;;491651;240;1170;-72
2021/08/22 02:02:18;;;;;;;;;;;24.40;52.40;;;;;;491606;240;1258;-73
2021/08/22 02:04:20;;;;;;;;;;;23.90;52.70;;;;;;491685;240;1057;-72
2021/08/22 02:06:21;;;;;;;;;;;24.00;52.70;;;;;;491852;240;1020;-72
2021/08/22 02:08:22;;;;;;;;;;;24.20;52.60;;;;;;491663;240;1386;-72
2021/08/22 02:10:23;;;;;;;;;;;24.40;52.30;;;;;;491684;240;1071;-72
2021/08/22 02:12:25;;;;;;;;;;;24.40;52.00;;;;;;491631;240;1206;-72
2021/08/22 02:14:26;;;;;;;;;;;24.40;52.20;;;;;;491707;240;1013;-72
2021/08/22 02:16:28;;;;;;;;;;;24.30;52.20;;;;;;491621;240;1525;-72
2021/08/22 02:18:29;;;;;;;;;;;24.10;52.50;;;;;;491659;240;2191;-72
2021/08/22 02:20:30;;;;;;;;;;;24.10;52.70;;;;;;491748;240;1037;-72
2021/08/22 02:22:31;;;;;;;;;;;24.20;52.70;;;;;;491718;240;1044;-72
2021/08/22 02:24:33;;;;;;;;;;;24.30;52.50;;;;;;491757;240;1067;-72
2021/08/22 02:26:34;;;;;;;;;;;24.10;52.70;;;;;;491619;240;1129;-72
2021/08/22 02:28:35;;;;;;;;;;;24.40;52.10;;;;;;491700;240;1046;-72
2021/08/22 02:30:37;;;;;;;;;;;24.30;52.60;;;;;;491682;240;1121;-72
2021/08/22 02:32:38;;;;;;;;;;;24.10;52.50;;;;;;491616;240;1219;-72
2021/08/22 02:34:39;;;;;;;;;;;24.20;52.30;;;;;;491681;240;1074;-72
2021/08/22 02:36:41;;;;;;;;;;;24.30;52.70;;;;;;491613;240;1181;-72
2021/08/22 02:38:42;;;;;;;;;;;24.20;52.70;;;;;;491692;240;2140;-72
2021/08/22 02:40:44;;;;;;;;;;;24.10;52.80;;;;;;491648;240;1223;-72
2021/08/22 02:42:45;;;;;;;;;;;24.20;52.60;;;;;;491603;240;1159;-73
2021/08/22 02:44:46;;;;;;;;;;;24.10;52.50;;;;;;491763;240;1022;-72
2021/08/22 02:46:48;;;;;;;;;;;24.40;52.30;;;;;;491670;240;1213;-72
2021/08/22 02:48:49;;;;;;;;;;;24.00;52.70;;;;;;491669;240;1068;-72
2021/08/22 02:50:50;;;;;;;;;;;24.10;52.80;;;;;;491702;240;1033;-72
2021/08/22 02:52:52;;;;;;;;;;;24.20;52.50;;;;;;491596;240;1049;-72
2021/08/22 02:54:53;;;;;;;;;;;24.30;52.50;;;;;;491702;240;1030;-72
2021/08/22 02:56:54;;;;;;;;;;;24.30;52.30;;;;;;491764;240;1207;-72
2021/08/22 02:58:56;;;;;;;;;;;24.30;52.30;;;;;;491704;240;2133;-72
2021/08/22 03:00:57;;;;;;;;;;;24.30;52.60;;;;;;491668;240;1162;-72
2021/08/22 03:02:58;;;;;;;;;;;23.80;53.00;;;;;;491660;240;1149;-72
2021/08/22 03:05:00;;;;;;;;;;;24.30;52.40;;;;;;491787;240;1133;-72
2021/08/22 03:07:01;;;;;;;;;;;24.30;52.40;;;;;;491635;240;1195;-72
2021/08/22 03:09:03;;;;;;;;;;;24.10;52.40;;;;;;491803;240;1013;-72
2021/08/22 03:11:04;;;;;;;;;;;24.30;52.60;;;;;;491682;240;1478;-72
2021/08/22 03:13:05;;;;;;;;;;;24.10;53.00;;;;;;491706;240;1035;-72
2021/08/22 03:15:06;;;;;;;;;;;24.00;52.80;;;;;;491788;240;930;-72
2021/08/22 03:17:08;;;;;;;;;;;23.80;53.10;;;;;;491643;240;1252;-72
2021/08/22 03:19:09;;;;;;;;;;;24.30;52.50;;;;;;491664;240;2191;-72
2021/08/22 03:21:10;;;;;;;;;;;24.30;52.50;;;;;;491700;240;1053;-72
2021/08/22 03:23:12;;;;;;;;;;;23.90;52.80;;;;;;491692;240;1135;-72
2021/08/22 03:25:13;;;;;;;;;;;24.10;52.80;;;;;;491670;240;1193;-72
2021/08/22 03:27:14;;;;;;;;;;;24.30;52.30;;;;;;491592;240;1170;-72
2021/08/22 03:29:16;;;;;;;;;;;24.30;52.20;;;;;;491770;240;1068;-72
2021/08/22 03:31:17;;;;;;;;;;;24.30;52.20;;;;;;491594;240;1292;-72
2021/08/22 03:33:19;;;;;;;;;;;24.30;52.20;;;;;;491670;240;1341;-72
2021/08/22 03:35:20;;;;;;;;;;;24.30;52.60;;;;;;491648;240;1309;-72
2021/08/22 03:37:21;;;;;;;;;;;24.10;52.60;;;;;;491638;240;1053;-72
2021/08/22 03:39:22;;;;;;;;;;;24.30;52.20;;;;;;491673;240;2208;-72
2021/08/22 03:41:24;;;;;;;;;;;24.20;52.70;;;;;;491666;240;1332;-72
2021/08/22 03:43:25;;;;;;;;;;;23.90;53.10;;;;;;491646;240;1083;-72
2021/08/22 03:45:26;;;;;;;;;;;24.30;52.60;;;;;;491679;240;1051;-72
2021/08/22 03:47:28;;;;;;;;;;;24.40;52.10;;;;;;491573;240;1185;-72
2021/08/22 03:49:29;;;;;;;;;;;24.30;52.40;;;;;;491630;240;1017;-72
2021/08/22 03:51:30;;;;;;;;;;;24.30;52.50;;;;;;491625;240;1295;-72
2021/08/22 03:53:31;;;;;;;;;;;24.20;52.60;;;;;;491640;240;1120;-72
2021/08/22 03:55:33;;;;;;;;;;;24.20;52.60;;;;;;491669;240;1024;-72
2021/08/22 03:57:34;;;;;;;;;;;24.30;52.10;;;;;;491587;240;1238;-72
2021/08/22 03:59:36;;;;;;;;;;;24.30;52.70;;;;;;491790;240;2187;-72
2021/08/22 04:01:37;;;;;;;;;;;24.10;52.60;;;;;;491591;240;1211;-72
2021/08/22 04:03:40;;;;;;;;;;;24.30;52.20;;;;;;491687;240;1055;-72
2021/08/22 04:05:40;;;;;;;;;;;24.30;52.30;;;;;;491665;240;1382;-72
2021/08/22 04:07:47;;;;;;;;;;;23.90;53.10;;;;;;491610;240;1081;-72
2021/08/22 04:09:45;;;;;;;;;;;23.80;53.10;;;;;;491676;240;1374;-72
2021/08/22 04:11:47;;;;;;;;;;;24.30;52.30;;;;;;491673;240;1380;-72
2021/08/22 04:13:48;;;;;;;;;;;24.00;53.00;;;;;;491728;240;1165;-72
2021/08/22 04:15:50;;;;;;;;;;;24.30;52.30;;;;;;491662;240;1153;-72
2021/08/22 04:17:51;;;;;;;;;;;24.30;52.40;;;;;;491631;240;1472;-72
2021/08/22 04:19:52;;;;;;;;;;;24.20;52.60;;;;;;491753;240;2187;-72
2021/08/22 04:21:53;;;;;;;;;;;24.30;52.30;;;;;;491584;240;1402;-72
2021/08/22 04:23:55;;;;;;;;;;;24.10;52.80;;;;;;491680;240;1038;-72
2021/08/22 04:25:56;;;;;;;;;;;24.30;52.30;;;;;;491623;240;1165;-72
2021/08/22 04:27:57;;;;;;;;;;;24.20;52.40;;;;;;491625;240;1112;-72
2021/08/22 04:29:59;;;;;;;;;;;24.10;52.60;;;;;;491811;240;1050;-72
2021/08/22 04:32:00;;;;;;;;;;;24.10;52.70;;;;;;491555;240;1214;-72
2021/08/22 04:34:02;;;;;;;;;;;24.00;52.80;;;;;;491759;240;1038;-72
2021/08/22 04:36:03;;;;;;;;;;;24.20;52.70;;;;;;491663;240;1284;-72
2021/08/22 04:38:04;;;;;;;;;;;24.20;52.60;;;;;;491675;240;1220;-72
2021/08/22 04:40:06;;;;;;;;;;;24.20;52.50;;;;;;491647;240;2168;-72
2021/08/22 04:42:07;;;;;;;;;;;24.10;52.50;;;;;;491587;240;1253;-72
2021/08/22 04:44:09;;;;;;;;;;;24.20;52.60;;;;;;491830;240;936;-72
2021/08/22 04:46:10;;;;;;;;;;;24.30;52.30;;;;;;491654;240;953;-72
2021/08/22 04:48:11;;;;;;;;;;;24.10;52.80;;;;;;491649;240;1206;-72
2021/08/22 04:50:13;;;;;;;;;;;24.00;53.30;;;;;;491633;240;1017;-72
2021/08/22 04:52:15;;;;;;;;;;;23.90;53.20;;;;;;491600;240;1266;-72
2021/08/22 04:54:18;;;;;;;;;;;24.20;52.70;;;;;;491718;240;1127;-72
2021/08/22 04:56:17;;;;;;;;;;;24.20;52.80;;;;;;491690;240;1455;-72
2021/08/22 04:58:19;;;;;;;;;;;24.30;52.70;;;;;;491646;240;2179;-72
2021/08/22 05:00:20;;;;;;;;;;;23.90;53.40;;;;;;491744;240;1058;-72
2021/08/22 05:02:21;;;;;;;;;;;24.00;53.10;;;;;;491731;240;1196;-72
2021/08/22 05:04:23;;;;;;;;;;;24.10;52.90;;;;;;491645;240;992;-72
2021/08/22 05:06:24;;;;;;;;;;;24.00;52.80;;;;;;491543;240;1134;-72
2021/08/22 05:08:25;;;;;;;;;;;24.20;52.80;;;;;;491625;240;1063;-72
2021/08/22 05:10:27;;;;;;;;;;;23.90;53.70;;;;;;491712;240;1106;-72
2021/08/22 05:12:28;;;;;;;;;;;23.90;53.20;;;;;;491702;240;1216;-72
2021/08/22 05:14:30;;;;;;;;;;;24.20;52.90;;;;;;491575;240;1130;-72
2021/08/22 05:16:31;;;;;;;;;;;24.10;52.80;;;;;;491528;240;1240;-72
2021/08/22 05:18:32;;;;;;;;;;;24.00;52.70;;;;;;491640;240;2160;-72
2021/08/22 05:20:33;;;;;;;;;;;23.90;53.40;;;;;;491680;240;1104;-72
2021/08/22 05:22:35;;;;;;;;;;;24.10;53.10;;;;;;491696;240;1296;-72
2021/08/22 05:24:36;;;;;;;;;;;24.30;52.70;;;;;;491690;240;1050;-72
2021/08/22 05:26:37;;;;;;;;;;;24.20;52.70;;;;;;491589;240;1324;-72
2021/08/22 05:28:39;;;;;;;;;;;24.20;52.90;;;;;;491718;240;1036;-72
2021/08/22 05:30:40;;;;;;;;;;;23.70;53.50;;;;;;491649;240;1270;-72
2021/08/22 05:32:41;;;;;;;;;;;24.00;53.40;;;;;;491664;240;1152;-72
2021/08/22 05:34:43;;;;;;;;;;;24.00;53.40;;;;;;491752;240;1027;-72
2021/08/22 05:36:44;;;;;;;;;;;23.70;53.80;;;;;;491644;240;1206;-72
2021/08/22 05:38:45;;;;;;;;;;;23.90;53.10;;;;;;491748;240;2124;-73
2021/08/22 05:40:47;;;;;;;;;;;24.00;53.10;;;;;;491645;240;1204;-72
2021/08/22 05:42:48;;;;;;;;;;;24.00;53.20;;;;;;491716;240;1052;-72
2021/08/22 05:44:49;;;;;;;;;;;23.90;53.50;;;;;;491615;240;983;-73
2021/08/22 05:46:51;;;;;;;;;;;23.90;53.40;;;;;;491591;240;1251;-72
2021/08/22 05:48:52;;;;;;;;;;;23.90;53.50;;;;;;491750;240;1128;-72
2021/08/22 05:50:53;;;;;;;;;;;23.90;53.50;;;;;;491661;240;1305;-72
2021/08/22 05:52:55;;;;;;;;;;;24.00;53.50;;;;;;491616;240;1106;-72
2021/08/22 05:54:56;;;;;;;;;;;24.10;53.10;;;;;;491649;240;1036;-72
2021/08/22 05:56:58;;;;;;;;;;;23.90;53.20;;;;;;491627;240;1479;-72
2021/08/22 05:58:59;;;;;;;;;;;24.10;52.80;;;;;;491653;240;2144;-72
2021/08/22 06:01:00;;;;;;;;;;;24.00;52.90;;;;;;491601;240;1215;-72
2021/08/22 06:03:02;;;;;;;;;;;24.10;53.30;;;;;;491624;240;1135;-72
2021/08/22 06:05:03;;;;;;;;;;;24.00;53.10;;;;;;491655;240;951;-72
2021/08/22 06:07:04;;;;;;;;;;;23.90;53.40;;;;;;491623;240;1210;-72
2021/08/22 06:09:06;;;;;;;;;;;23.90;53.00;;;;;;491684;240;1066;-72
2021/08/22 06:11:07;;;;;;;;;;;23.90;53.90;;;;;;491653;240;1033;-72
2021/08/22 06:13:08;;;;;;;;;;;23.50;54.00;;;;;;491613;240;1039;-72
2021/08/22 06:15:10;;;;;;;;;;;23.90;53.30;;;;;;491631;240;1024;-72
2021/08/22 06:17:11;;;;;;;;;;;23.90;53.80;;;;;;491545;240;1218;-73
2021/08/22 06:19:13;;;;;;;;;;;24.00;53.30;;;;;;491800;240;2188;-72
2021/08/22 06:21:14;;;;;;;;;;;24.00;53.40;;;;;;491805;240;1256;-72
2021/08/22 06:23:15;;;;;;;;;;;24.00;52.90;;;;;;491837;240;1151;-72
2021/08/22 06:25:16;;;;;;;;;;;23.80;53.80;;;;;;491679;240;1079;-72
2021/08/22 06:27:18;;;;;;;;;;;24.00;53.40;;;;;;491644;240;1204;-72
2021/08/22 06:29:19;;;;;;;;;;;24.10;53.00;;;;;;491793;240;995;-72
2021/08/22 06:31:20;;;;;;;;;;;23.80;53.80;;;;;;491603;240;1230;-72
2021/08/22 06:33:22;;;;;;;;;;;23.90;53.30;;;;;;491628;240;1201;-72
2021/08/22 06:35:23;;;;;;;;;;;24.00;53.50;;;;;;491718;240;1109;-72
2021/08/22 06:37:24;;;;;;;;;;;23.90;53.40;;;;;;491895;240;1022;-72
2021/08/22 06:39:26;;;;;;;;;;;23.90;53.50;;;;;;491671;240;2187;-72
2021/08/22 06:41:28;;;;;;;;;;;23.70;54.00;;;;;;491642;240;1324;-72
2021/08/22 06:43:28;;;;;;;;;;;23.70;53.70;;;;;;491618;240;1410;-73
2021/08/22 06:45:30;;;;;;;;;;;23.50;54.70;;;;;;491736;240;968;-72
2021/08/22 06:47:31;;;;;;;;;;;23.60;54.40;;;;;;491621;240;1020;-72
2021/08/22 06:49:32;;;;;;;;;;;23.60;54.30;;;;;;491784;240;1172;-72
2021/08/22 06:51:34;;;;;;;;;;;23.80;53.80;;;;;;491693;240;979;-72
2021/08/22 06:53:35;;;;;;;;;;;24.00;53.60;;;;;;491805;240;1024;-73
2021/08/22 06:55:36;;;;;;;;;;;24.00;53.70;;;;;;491755;240;1053;-72
2021/08/22 06:57:38;;;;;;;;;;;23.60;54.10;;;;;;491761;240;1038;-72
2021/08/22 06:59:39;;;;;;;;;;;23.80;53.80;;;;;;491641;240;2202;-72
2021/08/22 07:01:40;;;;;;;;;;;23.90;53.90;;;;;;491627;240;1294;-72
2021/08/22 07:03:42;;;;;;;;;;;24.00;53.50;;;;;;491644;240;1321;-72
2021/08/22 07:05:43;;;;;;;;;;;23.90;53.40;;;;;;491681;240;1067;-72
2021/08/22 07:07:45;;;;;;;;;;;24.00;53.20;;;;;;491663;240;1353;-72
2021/08/22 07:09:46;;;;;;;;;;;23.90;53.80;;;;;;491684;240;1056;-72
2021/08/22 07:11:47;;;;;;;;;;;23.60;53.80;;;;;;491729;240;1062;-72
2021/08/22 07:13:48;;;;;;;;;;;23.80;53.80;;;;;;491616;240;1191;-72
2021/08/22 07:15:50;;;;;;;;;;;24.00;53.70;;;;;;491564;240;1193;-72
2021/08/22 07:17:51;;;;;;;;;;;23.80;54.20;;;;;;491615;240;1210;-72
2021/08/22 07:19:52;;;;;;;;;;;23.80;53.90;;;;;;491682;240;2184;-72
2021/08/22 07:21:54;;;;;;;;;;;24.00;53.80;;;;;;491671;240;1065;-72
2021/08/22 07:23:55;;;;;;;;;;;23.90;53.60;;;;;;491693;240;1201;-72
2021/08/22 07:25:56;;;;;;;;;;;24.20;53.10;;;;;;491662;240;967;-72
2021/08/22 07:27:58;;;;;;;;;;;24.10;53.20;;;;;;491610;240;1117;-72
2021/08/22 07:29:59;;;;;;;;;;;23.90;53.40;;;;;;491684;240;1090;-72
2021/08/22 07:32:00;;;;;;;;;;;23.80;53.70;;;;;;491661;240;1040;-72
2021/08/22 07:34:02;;;;;;;;;;;24.00;53.50;;;;;;491613;240;1203;-72
2021/08/22 07:36:03;;;;;;;;;;;24.20;53.10;;;;;;491573;240;1129;-72
2021/08/22 07:38:04;;;;;;;;;;;24.10;53.20;;;;;;491725;240;1241;-72
2021/08/22 07:40:06;;;;;;;;;;;24.10;53.60;;;;;;491699;240;2188;-72
2021/08/22 07:42:07;;;;;;;;;;;23.90;53.70;;;;;;491553;240;1064;-73
2021/08/22 07:44:08;;;;;;;;;;;24.00;53.10;;;;;;491628;240;1090;-72
2021/08/22 07:46:10;;;;;;;;;;;24.00;53.20;;;;;;491700;240;1116;-73
2021/08/22 07:48:11;;;;;;;;;;;24.00;53.50;;;;;;491655;240;1318;-72
2021/08/22 07:50:12;;;;;;;;;;;24.10;53.30;;;;;;491657;240;1141;-72
2021/08/22 07:52:14;;;;;;;;;;;23.90;53.50;;;;;;491622;240;1242;-73
2021/08/22 07:54:15;;;;;;;;;;;24.00;53.40;;;;;;491900;240;1138;-72
2021/08/22 07:56:16;;;;;;;;;;;24.20;53.20;;;;;;491722;240;1057;-72
2021/08/22 07:58:18;;;;;;;;;;;24.00;53.80;;;;;;491671;240;1198;-72
2021/08/22 08:00:19;;;;;;;;;;;23.40;54.40;;;;;;491641;240;2188;-72
2021/08/22 08:02:20;;;;;;;;;;;23.40;55.30;;;;;;491688;240;1063;-72
2021/08/22 08:04:22;;;;;;;;;;;23.10;56.00;;;;;;491645;240;1177;-72
2021/08/22 08:06:23;;;;;;;;;;;23.20;55.90;;;;;;491657;240;1170;-72
2021/08/22 08:08:24;;;;;;;;;;;23.00;56.10;;;;;;491649;240;1092;-72
2021/08/22 08:10:26;;;;;;;;;;;22.80;56.50;;;;;;491666;240;1153;-72
2021/08/22 08:12:28;;;;;;;;;;;22.90;56.60;;;;;;491627;240;1266;-72
2021/08/22 08:14:29;;;;;;;;;;;22.70;57.20;;;;;;491675;240;1016;-72
2021/08/22 08:16:31;;;;;;;;;;;22.60;57.40;;;;;;491662;240;1083;-72
2021/08/22 08:18:33;;;;;;;;;;;22.60;57.30;;;;;;491606;240;1053;-72
2021/08/22 08:20:33;;;;;;;;;;;22.60;57.30;;;;;;491578;240;2191;-72
2021/08/22 08:22:35;;;;;;;;;;;22.60;57.30;;;;;;491572;240;1127;-72
2021/08/22 08:24:36;;;;;;;;;;;22.50;57.50;;;;;;491761;240;1088;-72
2021/08/22 08:26:37;;;;;;;;;;;22.50;57.80;;;;;;491662;240;1242;-72
2021/08/22 08:28:39;;;;;;;;;;;22.50;57.80;;;;;;491748;240;1129;-72
2021/08/22 08:30:40;;;;;;;;;;;22.60;57.60;;;;;;491642;240;1396;-72
2021/08/22 08:32:41;;;;;;;;;;;22.40;58.10;;;;;;491691;240;1225;-72
2021/08/22 08:34:43;;;;;;;;;;;22.50;57.70;;;;;;491754;240;1164;-72
2021/08/22 08:36:44;;;;;;;;;;;22.50;57.50;;;;;;491663;240;1171;-72
2021/08/22 08:38:45;;;;;;;;;;;22.40;58.00;;;;;;491673;240;1162;-72
2021/08/22 08:40:47;;;;;;;;;;;22.40;57.90;;;;;;491731;240;2188;-72
2021/08/22 08:42:48;;;;;;;;;;;22.40;58.10;;;;;;491697;240;1119;-72
2021/08/22 08:44:49;;;;;;;;;;;22.50;58.00;;;;;;491700;240;1057;-72
2021/08/22 08:46:51;;;;;;;;;;;22.50;57.80;;;;;;491672;240;1250;-72
2021/08/22 08:48:52;;;;;;;;;;;22.70;57.40;;;;;;491694;240;1129;-72
2021/08/22 08:50:53;;;;;;;;;;;22.40;58.10;;;;;;491663;240;1123;-72
2021/08/22 08:52:55;;;;;;;;;;;22.40;58.00;;;;;;491593;240;1252;-72
2021/08/22 08:54:58;;;;;;;;;;;22.40;58.10;;;;;;491710;240;1110;-72
2021/08/22 08:56:57;;;;;;;;;;;22.30;58.20;;;;;;491625;240;1384;-72
2021/08/22 08:58:59;;;;;;;;;;;22.40;58.30;;;;;;491695;240;1098;-72
2021/08/22 09:01:00;;;;;;;;;;;22.60;57.70;;;;;;491662;240;2137;-72
2021/08/22 09:03:01;;;;;;;;;;;22.50;58.00;;;;;;491680;240;1337;-72
2021/08/22 09:05:03;;;;;;;;;;;22.50;57.90;;;;;;491706;240;1132;-72
2021/08/22 09:07:04;;;;;;;;;;;22.30;58.30;;;;;;491657;240;1078;-72
2021/08/22 09:09:05;;;;;;;;;;;22.40;58.10;;;;;;491622;240;1061;-73
2021/08/22 09:11:07;;;;;;;;;;;22.70;57.60;;;;;;491740;240;1001;-72
2021/08/22 09:13:08;;;;;;;;;;;22.60;57.70;;;;;;491583;240;1238;-72
2021/08/22 09:15:10;;;;;;;;;;;22.50;58.00;;;;;;491696;240;1324;-72
2021/08/22 09:17:11;;;;;;;;;;;22.60;57.80;;;;;;491593;240;1158;-72
2021/08/22 09:19:12;;;;;;;;;;;22.60;57.70;;;;;;491703;240;1102;-72
2021/08/22 09:21:13;;;;;;;;;;;22.40;58.10;;;;;;491705;240;2183;-72
2021/08/22 09:23:15;;;;;;;;;;;22.30;58.10;;;;;;491675;240;1420;-72
2021/08/22 09:25:18;;;;;;;;;;;22.40;58.20;;;;;;491702;240;995;-72
2021/08/22 09:27:18;;;;;;;;;;;22.30;58.40;;;;;;491655;240;1386;-72
2021/08/22 09:29:19;;;;;;;;;;;22.50;57.80;;;;;;491682;240;1155;-72
2021/08/22 09:31:20;;;;;;;;;;;22.50;57.80;;;;;;491682;240;1258;-72
2021/08/22 09:33:23;;;;;;;;;;;22.40;58.10;;;;;;491633;240;1127;-72
2021/08/22 09:35:23;;;;;;;;;;;22.40;58.20;;;;;;491694;240;1299;-72
2021/08/22 09:37:24;;;;;;;;;;;22.50;58.10;;;;;;491645;240;1234;-72
2021/08/22 09:39:26;;;;;;;;;;;22.60;57.90;;;;;;491684;240;1049;-72
2021/08/22 09:41:27;;;;;;;;;;;23.00;57.00;;;;;;491545;240;2192;-72
2021/08/22 09:43:28;;;;;;;;;;;23.10;56.30;;;;;;491670;240;1127;-72
2021/08/22 09:45:30;;;;;;;;;;;23.20;55.70;;;;;;491610;240;1180;-72
2021/08/22 09:47:31;;;;;;;;;;;22.70;56.80;;;;;;491626;240;1231;-72
2021/08/22 09:49:32;;;;;;;;;;;22.60;57.30;;;;;;491654;240;1068;-72
2021/08/22 09:51:34;;;;;;;;;;;22.60;57.90;;;;;;491559;240;1295;-72
2021/08/22 09:53:35;;;;;;;;;;;22.50;57.80;;;;;;491672;240;1186;-72
2021/08/22 09:55:37;;;;;;;;;;;22.30;58.50;;;;;;491650;240;1221;-72
2021/08/22 09:57:39;;;;;;;;;;;22.30;58.40;;;;;;491702;240;1227;-72
2021/08/22 09:59:40;;;;;;;;;;;22.50;57.90;;;;;;491699;240;1045;-72
2021/08/22 10:01:41;;;;;;;;;;;22.30;58.40;;;;;;491628;240;2196;-72
2021/08/22 10:03:43;;;;;;;;;;;22.10;58.90;;;;;;491648;240;1057;-72
2021/08/22 10:05:45;;;;;;;;;;;22.10;59.10;;;;;;491653;240;1256;-72
2021/08/22 10:07:45;;;;;;;;;;;22.00;59.40;;;;;;491681;240;1389;-72
2021/08/22 10:09:47;;;;;;;;;;;22.00;59.50;;;;;;491653;240;1032;-72
2021/08/22 10:11:48;;;;;;;;;;;21.90;59.50;;;;;;491597;240;1172;-72
2021/08/22 10:13:49;;;;;;;;;;;22.00;59.50;;;;;;491638;240;1067;-72
2021/08/22 10:15:51;;;;;;;;;;;21.90;59.50;;;;;;491622;240;1297;-72
2021/08/22 10:17:52;;;;;;;;;;;21.90;59.60;;;;;;491661;240;1082;-72
2021/08/22 10:19:54;;;;;;;;;;;22.00;59.50;;;;;;491663;240;957;-72
2021/08/22 10:21:55;;;;;;;;;;;22.00;59.50;;;;;;491539;240;2244;-72
2021/08/22 10:23:56;;;;;;;;;;;21.90;59.60;;;;;;491612;240;1043;-72
2021/08/22 10:25:58;;;;;;;;;;;21.90;59.70;;;;;;491789;240;1164;-72
2021/08/22 10:27:59;;;;;;;;;;;21.90;59.80;;;;;;491633;240;1078;-72
2021/08/22 10:30:02;;;;;;;;;;;21.90;59.80;;;;;;491735;240;1032;-72
2021/08/22 10:32:02;;;;;;;;;;;21.90;59.80;;;;;;491668;240;1526;-72
2021/08/22 10:34:03;;;;;;;;;;;21.90;59.80;;;;;;491657;240;973;-72
2021/08/22 10:36:05;;;;;;;;;;;21.80;60.00;;;;;;491654;240;1167;-72
2021/08/22 10:38:06;;;;;;;;;;;21.80;59.90;;;;;;491637;240;1034;-72
2021/08/22 10:40:07;;;;;;;;;;;21.90;59.80;;;;;;491661;240;975;-72
2021/08/22 10:42:09;;;;;;;;;;;21.90;59.80;;;;;;491660;240;2117;-72
2021/08/22 10:44:10;;;;;;;;;;;21.90;59.90;;;;;;491703;240;998;-72
2021/08/22 10:46:11;;;;;;;;;;;21.90;59.80;;;;;;491603;240;1019;-72
2021/08/22 10:48:13;;;;;;;;;;;21.90;59.70;;;;;;491690;240;1124;-72
2021/08/22 10:50:14;;;;;;;;;;;21.90;59.80;;;;;;491661;240;1083;-72
2021/08/22 10:52:15;;;;;;;;;;;21.90;59.90;;;;;;491605;240;1196;-72
2021/08/22 10:54:17;;;;;;;;;;;22.00;59.70;;;;;;491712;240;1128;-72
2021/08/22 10:56:19;;;;;;;;;;;22.00;59.50;;;;;;491657;240;1118;-72
2021/08/22 10:58:20;;;;;;;;;;;22.70;57.80;;;;;;491700;240;1111;-72
2021/08/22 11:00:22;;;;;;;;;;;23.30;56.50;;;;;;491697;240;1038;-72
2021/08/22 11:02:23;;;;;;;;;;;23.00;56.10;;;;;;491627;240;1301;-72
2021/08/22 11:04:26;;;;;;;;;;;22.50;57.70;;;;;;491753;240;1091;-72
2021/08/22 11:06:26;;;;;;;;;;;22.50;58.10;;;;;;491550;240;1436;-72
2021/08/22 11:08:27;;;;;;;;;;;22.20;58.80;;;;;;491597;240;1036;-72
2021/08/22 11:10:29;;;;;;;;;;;22.10;59.10;;;;;;491701;240;1045;-72
2021/08/22 11:12:30;;;;;;;;;;;22.00;59.30;;;;;;491581;240;1150;-72
2021/08/22 11:14:31;;;;;;;;;;;21.90;59.60;;;;;;491881;240;1016;-72
2021/08/22 11:16:33;;;;;;;;;;;22.00;59.60;;;;;;491664;240;1253;-72
2021/08/22 11:18:34;;;;;;;;;;;22.00;59.60;;;;;;491627;240;1045;-72
2021/08/22 11:20:36;;;;;;;;;;;22.00;59.60;;;;;;491583;240;2192;-72
2021/08/22 11:22:37;;;;;;;;;;;22.00;59.60;;;;;;491591;240;1178;-72
2021/08/22 11:24:38;;;;;;;;;;;22.00;59.60;;;;;;491624;240;1048;-73
2021/08/22 11:26:39;;;;;;;;;;;22.00;59.60;;;;;;491579;240;1581;-72
2021/08/22 11:28:41;;;;;;;;;;;22.00;59.50;;;;;;491622;240;1010;-72
2021/08/22 11:30:42;;;;;;;;;;;22.00;59.60;;;;;;491637;240;1031;-73
2021/08/22 11:32:43;;;;;;;;;;;21.90;59.80;;;;;;491602;240;1230;-72
2021/08/22 11:34:45;;;;;;;;;;;21.90;59.70;;;;;;491659;240;1022;-72
2021/08/22 11:36:49;;;;;;;;;;;21.90;59.80;;;;;;491583;240;1198;-72
2021/08/22 11:38:47;;;;;;;;;;;21.90;59.70;;;;;;491619;240;1321;-73
2021/08/22 11:40:49;;;;;;;;;;;22.10;59.60;;;;;;491564;240;2196;-72
2021/08/22 11:42:50;;;;;;;;;;;22.00;59.60;;;;;;491576;240;1157;-72
2021/08/22 11:44:51;;;;;;;;;;;22.00;59.70;;;;;;491669;240;1091;-73
2021/08/22 11:46:53;;;;;;;;;;;22.00;59.70;;;;;;491599;240;1162;-72
2021/08/22 11:48:55;;;;;;;;;;;21.80;59.80;;;;;;491685;240;1188;-72
2021/08/22 11:50:55;;;;;;;;;;;21.90;60.00;;;;;;491623;240;1252;-72
2021/08/22 11:52:57;;;;;;;;;;;21.90;60.10;;;;;;491587;240;1174;-72
2021/08/22 11:54:58;;;;;;;;;;;21.90;60.10;;;;;;491664;240;1033;-72
2021/08/22 11:56:59;;;;;;;;;;;21.90;59.90;;;;;;491595;240;1211;-72